Time;durP1;ratioP1;P1;durP2;ratioP2;P2;SDS_P1;SDS_P2;PMS_P1;PMS_P2;Temp;Humidity;BMP_temperature;BMP_pressure;BME280_temperature;BME280_humidity;BME280_pressure;Samples;Min_cycle;Max_cycle;Signal;HPM_P1;HPM_P2
2022/12/23 00:03:15;;;;;;;146.52;23.13;;;8.20;99.90;;;;;;5062683;28;20048;-81
2022/12/23 00:05:40;;;;;;;152.63;23.35;;;8.20;99.90;;;;;;5030357;28;20047;-81
2022/12/23 00:08:07;;;;;;;155.88;24.38;;;8.20;99.90;;;;;;5028394;28;20510;-81
2022/12/23 00:10:36;;;;;;;148.50;23.20;;;8.20;99.90;;;;;;5029838;28;20052;-81
2022/12/23 00:15:46;;;;;;;150.93;23.10;;;8.20;99.90;;;;;;5027405;28;20359;-81
2022/12/23 00:18:11;;;;;;;117.93;21.15;;;8.20;99.90;;;;;;5024187;28;20053;-81
2022/12/23 00:20:37;;;;;;;153.77;23.83;;;8.20;99.90;;;;;;5028190;28;20038;-81
2022/12/23 00:23:06;;;;;;;115.10;21.98;;;8.20;99.90;;;;;;5011522;28;20068;-81
2022/12/23 00:25:39;;;;;;;167.75;25.75;;;8.20;99.90;;;;;;5020331;28;20057;-81
2022/12/23 00:28:10;;;;;;;141.13;24.25;;;8.30;99.90;;;;;;5025876;28;20116;-81
2022/12/23 00:31:06;;;;;;;169.95;26.27;;;8.30;99.90;;;;;;5007713;28;20411;-81
2022/12/23 00:33:36;;;;;;;136.68;24.10;;;8.20;99.90;;;;;;4984732;28;20076;-80
2022/12/23 00:36:20;;;;;;;170.50;25.77;;;8.30;99.90;;;;;;5003031;28;20057;-81
2022/12/23 00:44:16;;;;;;;218.30;28.90;;;8.40;99.90;;;;;;5026091;28;20128;-81
2022/12/23 00:46:42;;;;;;;158.05;26.63;;;8.30;99.90;;;;;;5025415;28;20454;-81
2022/12/23 00:51:55;;;;;;;205.80;28.52;;;8.30;99.90;;;;;;5024141;28;20530;-81
2022/12/23 00:54:20;;;;;;;184.15;27.20;;;8.30;99.90;;;;;;5024579;28;20033;-81
2022/12/23 00:56:46;;;;;;;143.40;27.27;;;8.30;99.90;;;;;;5024430;28;20041;-81
2022/12/23 00:59:12;;;;;;;182.00;27.23;;;8.30;99.90;;;;;;5024431;28;20120;-81
2022/12/23 01:07:06;;;;;;;174.40;26.35;;;8.30;99.90;;;;;;5014447;28;20076;-80
2022/12/23 01:09:32;;;;;;;179.48;27.83;;;8.30;99.90;;;;;;5019089;28;20041;-80
2022/12/23 01:11:57;;;;;;;184.10;27.60;;;8.30;99.90;;;;;;5019427;28;20041;-80
2022/12/23 01:14:23;;;;;;;191.00;28.10;;;8.30;99.90;;;;;;5004548;28;20151;-81
2022/12/23 01:16:49;;;;;;;173.05;27.50;;;8.30;99.90;;;;;;5016672;28;20045;-81
2022/12/23 01:19:14;;;;;;;195.57;27.85;;;8.40;99.90;;;;;;5003554;28;20075;-81
2022/12/23 01:21:40;;;;;;;112.05;24.25;;;8.30;99.90;;;;;;5020566;28;20045;-80
2022/12/23 01:24:06;;;;;;;116.68;25.20;;;8.30;99.90;;;;;;5019678;28;20055;-80
2022/12/23 01:26:31;;;;;;;152.55;28.38;;;8.30;99.90;;;;;;5015993;28;20085;-80
2022/12/23 01:28:58;;;;;;;161.65;26.25;;;8.30;99.90;;;;;;5001565;28;20163;-80
2022/12/23 01:31:25;;;;;;;183.40;25.35;;;8.30;99.90;;;;;;5020887;28;20120;-81
2022/12/23 01:33:52;;;;;;;104.65;23.42;;;8.30;99.90;;;;;;5020960;28;20126;-80
2022/12/23 01:36:18;;;;;;;149.27;26.48;;;8.30;99.90;;;;;;5036035;28;20839;-80
2022/12/23 01:38:44;;;;;;;162.02;27.75;;;8.30;99.90;;;;;;5021074;28;20056;-80
2022/12/23 01:44:52;;;;;;;149.88;25.40;;;8.30;99.90;;;;;;5019258;28;20057;-80
2022/12/23 01:47:30;;;;;;;100.43;22.50;;;8.40;99.90;;;;;;4994045;28;20172;-80
2022/12/23 01:50:10;;;;;;;94.78;24.63;;;8.30;99.90;;;;;;5003254;28;20044;-80
2022/12/23 01:52:58;;;;;;;87.57;23.70;;;8.30;99.90;;;;;;5021996;28;20127;-80
2022/12/23 01:55:27;;;;;;;115.43;23.83;;;8.30;99.90;;;;;;5000285;28;20065;-80
2022/12/23 01:57:55;;;;;;;129.88;26.20;;;8.30;99.90;;;;;;5018836;28;20111;-80
2022/12/23 02:05:51;;;;;;;106.28;23.77;;;8.30;99.90;;;;;;5018585;28;20136;-79
2022/12/23 02:11:10;;;;;;;104.45;23.05;;;8.20;99.90;;;;;;5021707;28;20052;-79
2022/12/23 02:16:53;;;;;;;147.07;25.48;;;8.20;99.90;;;;;;5020495;28;20077;-80
2022/12/23 02:19:31;;;;;;;105.93;22.08;;;8.20;99.90;;;;;;5022178;28;20380;-80
2022/12/23 02:22:31;;;;;;;111.43;21.52;;;8.20;99.90;;;;;;5022002;28;20495;-80
2022/12/23 02:25:14;;;;;;;83.28;20.08;;;8.20;99.90;;;;;;5024946;28;20030;-80
2022/12/23 02:28:00;;;;;;;75.60;18.08;;;8.20;99.90;;;;;;5020099;28;20034;-80
2022/12/23 02:30:36;;;;;;;78.03;15.23;;;8.20;99.90;;;;;;5024246;28;20045;-80
2022/12/23 02:33:24;;;;;;;79.22;15.07;;;8.10;99.90;;;;;;5022482;28;20080;-80
2022/12/23 02:36:02;;;;;;;59.80;13.80;;;8.10;99.90;;;;;;5000657;28;20041;-80
2022/12/23 02:38:55;;;;;;;67.78;15.13;;;8.10;99.90;;;;;;4999702;28;20074;-80
2022/12/23 02:41:41;;;;;;;80.35;15.27;;;8.10;99.90;;;;;;5003537;28;20403;-80
2022/12/23 02:44:20;;;;;;;70.53;15.30;;;8.00;99.90;;;;;;5012694;28;20038;-80
2022/12/23 02:46:55;;;;;;;57.70;14.38;;;8.00;99.90;;;;;;5013306;28;20525;-80
2022/12/23 02:49:35;;;;;;;109.00;16.83;;;8.00;99.90;;;;;;5015667;28;20435;-80
2022/12/23 02:52:07;;;;;;;101.90;17.23;;;8.00;99.90;;;;;;5015897;28;20403;-80
2022/12/23 02:54:42;;;;;;;60.40;14.15;;;8.00;99.90;;;;;;5015669;28;20037;-80
2022/12/23 02:57:09;;;;;;;77.18;14.77;;;7.90;99.90;;;;;;4997697;28;20092;-79
2022/12/23 02:59:41;;;;;;;99.85;15.32;;;7.90;99.90;;;;;;5016686;28;20033;-80
2022/12/23 03:02:06;;;;;;;73.65;15.88;;;7.90;99.90;;;;;;5016118;28;20049;-80
2022/12/23 03:04:32;;;;;;;91.00;15.82;;;7.90;99.90;;;;;;4989637;28;20037;-80
2022/12/23 03:06:59;;;;;;;104.53;16.45;;;7.90;99.90;;;;;;5018458;28;20030;-80
2022/12/23 03:09:32;;;;;;;102.00;16.83;;;7.90;99.90;;;;;;5020788;28;20042;-80
2022/12/23 03:12:09;;;;;;;97.88;17.52;;;7.90;99.90;;;;;;5002842;28;20048;-80
2022/12/23 03:14:56;;;;;;;69.82;15.18;;;7.90;99.90;;;;;;5011912;28;20045;-80
2022/12/23 03:17:53;;;;;;;64.68;15.73;;;7.90;99.90;;;;;;5013958;28;20045;-80
2022/12/23 03:20:50;;;;;;;79.75;16.83;;;7.90;99.90;;;;;;4999102;28;20033;-80
2022/12/23 03:23:22;;;;;;;66.38;15.57;;;7.80;99.90;;;;;;5004589;28;20440;-80
2022/12/23 03:26:01;;;;;;;69.68;16.08;;;7.80;99.90;;;;;;5021442;28;20432;-80
2022/12/23 03:28:29;;;;;;;73.22;15.32;;;7.80;99.90;;;;;;5022548;28;20630;-80
2022/12/23 03:30:57;;;;;;;90.47;16.10;;;7.80;99.90;;;;;;5003543;28;20452;-80
2022/12/23 03:33:38;;;;;;;69.90;16.00;;;7.80;99.90;;;;;;5022218;28;20033;-80
2022/12/23 03:36:28;;;;;;;79.32;16.15;;;7.80;99.90;;;;;;5022010;28;20052;-80
2022/12/23 03:38:55;;;;;;;82.93;15.73;;;7.80;99.90;;;;;;5015029;28;20476;-80
2022/12/23 03:41:29;;;;;;;83.50;16.30;;;7.80;99.90;;;;;;5005623;28;20037;-80
2022/12/23 03:44:02;;;;;;;72.28;16.50;;;7.80;99.90;;;;;;5022230;28;20130;-80
2022/12/23 03:46:41;;;;;;;77.95;17.30;;;7.70;99.90;;;;;;5022356;28;20073;-80
2022/12/23 03:49:13;;;;;;;70.40;16.30;;;7.80;99.90;;;;;;5012403;28;20034;-80
2022/12/23 03:52:07;;;;;;;91.70;17.50;;;7.70;99.90;;;;;;5005525;28;20038;-80
2022/12/23 03:54:36;;;;;;;;;;;7.70;99.90;;;;;;5023837;28;20109;-80
2022/12/23 03:57:06;;;;;;;108.53;18.58;;;7.70;99.90;;;;;;5022320;28;19921;-80
2022/12/23 03:59:36;;;;;;;113.85;18.65;;;7.70;99.90;;;;;;5024671;28;20098;-80
2022/12/23 04:02:32;;;;;;;106.55;18.30;;;7.60;99.90;;;;;;5006284;28;20173;-80
2022/12/23 04:05:24;;;;;;;134.73;19.02;;;7.70;99.90;;;;;;5023203;28;20041;-80
2022/12/23 04:08:03;;;;;;;112.90;18.60;;;7.70;99.90;;;;;;5023519;28;20076;-80
2022/12/23 04:10:29;;;;;;;140.40;20.60;;;7.70;99.90;;;;;;5024901;28;20042;-80
2022/12/23 04:12:55;;;;;;;129.25;20.60;;;7.60;99.90;;;;;;5018674;28;20045;-79
2022/12/23 04:15:23;;;;;;;124.10;19.33;;;7.60;99.90;;;;;;5015422;28;20575;-79
2022/12/23 04:17:51;;;;;;;141.30;20.95;;;7.60;99.90;;;;;;5007330;28;20480;-79
2022/12/23 04:20:17;;;;;;;138.55;20.25;;;7.60;99.90;;;;;;5007280;28;20120;-79
2022/12/23 04:22:42;;;;;;;149.80;21.95;;;7.60;99.90;;;;;;5014010;28;20041;-79
2022/12/23 04:25:10;;;;;;;169.80;22.40;;;7.60;99.90;;;;;;5015926;28;20038;-79
2022/12/23 04:27:35;;;;;;;167.38;21.10;;;7.60;99.90;;;;;;5015531;28;20037;-80
2022/12/23 04:30:01;;;;;;;156.82;21.73;;;7.60;99.90;;;;;;4999246;28;20207;-79
2022/12/23 04:32:27;;;;;;;149.55;21.23;;;7.50;99.90;;;;;;5007261;28;20037;-79
2022/12/23 04:34:52;;;;;;;170.80;21.23;;;7.60;99.90;;;;;;5015212;28;20051;-79
2022/12/23 04:37:18;;;;;;;158.43;20.55;;;7.50;99.90;;;;;;4998742;28;20041;-79
2022/12/23 04:39:43;;;;;;;145.55;22.38;;;7.50;99.90;;;;;;5014808;28;20044;-79
2022/12/23 04:42:09;;;;;;;142.02;20.52;;;7.50;99.90;;;;;;5010771;28;20033;-79
2022/12/23 04:44:34;;;;;;;152.63;20.92;;;7.50;99.90;;;;;;5015169;28;20075;-79
2022/12/23 04:47:00;;;;;;;130.80;19.48;;;7.50;99.90;;;;;;5006225;28;20044;-79
2022/12/23 04:49:26;;;;;;;86.40;17.95;;;7.50;99.90;;;;;;4995623;28;20042;-79
2022/12/23 04:51:51;;;;;;;97.07;17.80;;;7.50;99.90;;;;;;4980387;28;20455;-79
2022/12/23 04:54:17;;;;;;;140.60;20.30;;;7.50;99.90;;;;;;5031666;28;20044;-79
2022/12/23 04:56:42;;;;;;;146.55;18.95;;;7.40;99.90;;;;;;5015346;28;20060;-79
2022/12/23 04:59:09;;;;;;;116.00;19.63;;;7.40;99.90;;;;;;5006287;28;20038;-79
2022/12/23 05:01:34;;;;;;;150.57;19.42;;;7.40;99.90;;;;;;5009866;28;20033;-79
2022/12/23 05:04:00;;;;;;;174.32;20.90;;;7.30;99.90;;;;;;5004878;28;20029;-79
2022/12/23 05:06:25;;;;;;;136.95;19.33;;;7.30;99.90;;;;;;5015534;28;20037;-79
2022/12/23 05:08:51;;;;;;;141.80;20.67;;;7.30;99.90;;;;;;5014516;28;20041;-79
2022/12/23 05:11:17;;;;;;;122.18;19.70;;;7.20;99.90;;;;;;5015187;28;20120;-79
2022/12/23 05:13:42;;;;;;;133.35;19.23;;;7.20;99.90;;;;;;5012894;28;20076;-79
2022/12/23 05:16:08;;;;;;;174.45;21.90;;;7.20;99.90;;;;;;5011720;28;20095;-79
2022/12/23 05:18:33;;;;;;;242.00;23.83;;;7.10;99.90;;;;;;5010847;28;20033;-79
2022/12/23 05:20:59;;;;;;;319.70;28.33;;;7.10;99.90;;;;;;5015138;28;20174;-79
2022/12/23 05:23:25;;;;;;;227.02;22.98;;;7.10;99.90;;;;;;5013924;28;20120;-80
2022/12/23 05:25:51;;;;;;;313.35;25.35;;;7.00;99.90;;;;;;4990229;28;20401;-79
2022/12/23 05:28:17;;;;;;;239.13;22.15;;;7.00;99.90;;;;;;4995776;28;20493;-79
2022/12/23 05:30:43;;;;;;;210.65;21.67;;;7.00;99.90;;;;;;4979825;28;20046;-79
2022/12/23 05:33:08;;;;;;;382.58;30.90;;;7.00;99.90;;;;;;5012641;28;20048;-79
2022/12/23 05:35:34;;;;;;;286.00;23.13;;;6.90;99.90;;;;;;5015083;28;20036;-79
2022/12/23 05:38:02;;;;;;;168.00;18.38;;;6.90;99.90;;;;;;5015964;28;20045;-79
2022/12/23 05:40:28;;;;;;;231.55;22.00;;;6.90;99.90;;;;;;5000819;28;20029;-79
2022/12/23 05:42:53;;;;;;;197.38;19.92;;;6.90;99.90;;;;;;5011564;28;20029;-79
2022/12/23 05:45:19;;;;;;;281.33;22.98;;;6.90;99.90;;;;;;5014285;28;20050;-79
2022/12/23 05:47:45;;;;;;;305.23;28.25;;;6.90;99.90;;;;;;5016811;28;20399;-79
2022/12/23 05:50:11;;;;;;;212.93;19.98;;;6.90;99.90;;;;;;5010407;28;20033;-79
2022/12/23 05:52:37;;;;;;;199.35;20.35;;;6.90;99.90;;;;;;5014704;28;20045;-79
2022/12/23 05:55:03;;;;;;;295.88;26.30;;;6.90;99.90;;;;;;4996224;28;20550;-80
2022/12/23 05:57:30;;;;;;;237.38;23.98;;;6.90;99.90;;;;;;4981739;28;20073;-79
2022/12/23 05:59:56;;;;;;;258.95;23.17;;;6.90;99.90;;;;;;4985361;28;20037;-79
2022/12/23 06:02:22;;;;;;;247.50;21.88;;;6.90;99.90;;;;;;5035396;23;20052;-79
2022/12/23 06:04:48;;;;;;;248.65;24.23;;;6.90;99.90;;;;;;4973231;28;20035;-79
2022/12/23 06:07:14;;;;;;;240.27;24.73;;;6.90;99.90;;;;;;4990390;28;20042;-79
2022/12/23 06:09:40;;;;;;;120.68;18.08;;;6.90;99.90;;;;;;4958705;28;20042;-79
2022/12/23 06:12:05;;;;;;;179.57;21.27;;;6.90;99.90;;;;;;4957005;28;20050;-79
2022/12/23 06:14:31;;;;;;;241.23;23.67;;;6.90;99.90;;;;;;4958571;28;20125;-79
2022/12/23 06:16:57;;;;;;;297.55;23.08;;;6.90;99.90;;;;;;4957125;28;20456;-79
2022/12/23 06:19:22;;;;;;;145.93;16.38;;;6.90;99.90;;;;;;4975637;28;20034;-79
2022/12/23 06:21:48;;;;;;;233.18;22.25;;;6.90;99.90;;;;;;4973990;28;20038;-79
2022/12/23 06:24:14;;;;;;;269.92;23.02;;;6.90;99.90;;;;;;4967474;28;20109;-79
2022/12/23 06:26:40;;;;;;;265.33;24.95;;;6.90;99.90;;;;;;4974776;28;20046;-79
2022/12/23 06:29:06;;;;;;;227.98;21.02;;;6.90;99.90;;;;;;4958257;28;20104;-79
2022/12/23 06:31:31;;;;;;;234.02;22.25;;;6.90;99.90;;;;;;4974219;28;20042;-79
2022/12/23 06:33:57;;;;;;;233.48;21.05;;;6.90;99.90;;;;;;4957147;28;20042;-79
2022/12/23 06:36:22;;;;;;;171.50;17.92;;;6.90;99.90;;;;;;4958521;28;20046;-78
2022/12/23 06:38:48;;;;;;;147.00;17.20;;;6.90;99.90;;;;;;4974296;28;20065;-79
2022/12/23 06:41:14;;;;;;;138.88;15.70;;;6.90;99.90;;;;;;4973975;28;20066;-79
2022/12/23 06:43:40;;;;;;;160.50;16.60;;;6.90;99.90;;;;;;4953544;28;20042;-79
2022/12/23 06:46:05;;;;;;;140.20;15.60;;;6.90;99.90;;;;;;4954294;28;20042;-79
2022/12/23 06:48:31;;;;;;;149.70;18.95;;;6.90;99.90;;;;;;4953978;28;20039;-79
2022/12/23 06:50:56;;;;;;;194.35;20.77;;;6.90;99.90;;;;;;4975760;28;20062;-79
2022/12/23 06:53:22;;;;;;;279.08;24.50;;;6.90;99.90;;;;;;4977501;28;20038;-79
2022/12/23 06:55:47;;;;;;;167.82;18.20;;;6.90;99.90;;;;;;4968168;28;20141;-79
2022/12/23 06:58:13;;;;;;;236.18;21.58;;;6.90;99.90;;;;;;4957036;28;20035;-79
2022/12/23 07:00:38;;;;;;;212.95;21.65;;;6.90;99.90;;;;;;4977308;28;20042;-79
2022/12/23 07:03:04;;;;;;;191.38;20.35;;;6.90;99.90;;;;;;4955795;28;20034;-79
2022/12/23 07:05:29;;;;;;;178.60;17.35;;;6.90;99.90;;;;;;4977503;28;20066;-79
2022/12/23 07:07:57;;;;;;;90.78;14.73;;;6.90;99.90;;;;;;4972475;28;20416;-79
2022/12/23 07:10:23;;;;;;;122.28;16.38;;;6.90;99.90;;;;;;4961894;28;20104;-79
2022/12/23 07:12:48;;;;;;;207.35;21.35;;;6.90;99.90;;;;;;4959302;28;20046;-79
2022/12/23 07:15:14;;;;;;;185.75;21.55;;;6.90;99.90;;;;;;4978614;28;20042;-79
2022/12/23 07:17:39;;;;;;;221.48;24.50;;;6.90;99.90;;;;;;4974118;28;20481;-79
2022/12/23 07:20:06;;;;;;;146.23;17.65;;;6.90;99.90;;;;;;4960485;28;20034;-79
2022/12/23 07:22:31;;;;;;;252.65;23.95;;;6.90;99.90;;;;;;4975841;28;20036;-79
2022/12/23 07:24:57;;;;;;;260.63;23.67;;;6.90;99.90;;;;;;4978611;28;20128;-79
2022/12/23 07:27:22;;;;;;;180.57;20.45;;;6.90;99.90;;;;;;4994802;28;20034;-79
2022/12/23 07:29:48;;;;;;;153.45;19.52;;;6.90;99.90;;;;;;4955383;28;20500;-77
2022/12/23 07:32:13;;;;;;;174.13;21.75;;;6.90;99.90;;;;;;4958815;28;20066;-80
2022/12/23 07:34:39;;;;;;;206.25;21.55;;;6.90;99.90;;;;;;4980971;28;20038;-76
2022/12/23 07:37:05;;;;;;;195.88;23.02;;;7.00;99.90;;;;;;4972636;28;20039;-76
2022/12/23 07:39:30;;;;;;;200.07;19.15;;;7.00;99.90;;;;;;4966062;28;20033;-78
2022/12/23 07:41:56;;;;;;;168.70;20.25;;;6.90;99.90;;;;;;4963013;28;20048;-79
2022/12/23 07:44:21;;;;;;;221.93;22.38;;;7.00;99.90;;;;;;4996908;28;20168;-79
2022/12/23 07:46:47;;;;;;;177.07;19.70;;;7.00;99.90;;;;;;4982278;28;20037;-79
2022/12/23 07:49:12;;;;;;;129.52;16.23;;;7.00;99.90;;;;;;4977462;28;20512;-79
2022/12/23 07:51:38;;;;;;;132.73;17.35;;;7.00;99.90;;;;;;4961386;28;20131;-79
2022/12/23 07:54:04;;;;;;;226.93;23.88;;;7.00;99.90;;;;;;4977051;28;20042;-79
2022/12/23 07:56:32;;;;;;;203.27;21.67;;;7.00;99.90;;;;;;4958309;28;20043;-79
2022/12/23 07:58:58;;;;;;;211.27;21.48;;;7.00;99.90;;;;;;4996813;28;20460;-78
2022/12/23 08:01:23;;;;;;;190.25;21.50;;;7.00;99.90;;;;;;4996240;28;20068;-78
2022/12/23 08:03:49;;;;;;;208.13;22.10;;;7.00;99.90;;;;;;4996801;28;20046;-79
2022/12/23 08:06:16;;;;;;;193.25;20.08;;;7.00;99.90;;;;;;4970655;28;20403;-78
2022/12/23 08:08:43;;;;;;;174.98;19.08;;;7.00;99.90;;;;;;4984684;28;20091;-79
2022/12/23 08:11:10;;;;;;;203.27;23.30;;;7.00;99.90;;;;;;4976058;28;20070;-79
2022/12/23 08:13:37;;;;;;;130.27;18.45;;;7.00;99.90;;;;;;4963897;28;20061;-79
2022/12/23 08:16:04;;;;;;;221.65;24.80;;;7.00;99.90;;;;;;4972705;28;20053;-79
2022/12/23 08:18:32;;;;;;;172.73;21.73;;;7.00;99.90;;;;;;4988958;28;20049;-79
2022/12/23 08:21:00;;;;;;;109.10;18.83;;;7.00;99.90;;;;;;4974750;28;20108;-79
2022/12/23 08:23:26;;;;;;;187.32;22.63;;;7.00;99.90;;;;;;4980382;28;20380;-81
2022/12/23 08:26:08;;;;;;;228.88;23.48;;;7.10;99.90;;;;;;4976776;28;20070;-81
2022/12/23 08:28:35;;;;;;;202.10;21.90;;;7.10;99.90;;;;;;4962260;28;20046;-81
2022/12/23 08:31:06;;;;;;;217.10;23.13;;;7.10;99.90;;;;;;4963684;28;20396;-82
2022/12/23 08:33:32;;;;;;;203.65;23.45;;;7.10;99.90;;;;;;4980336;28;20041;-82
2022/12/23 08:35:58;;;;;;;214.13;24.58;;;7.10;99.90;;;;;;4980202;28;20035;-80
2022/12/23 08:38:23;;;;;;;187.85;23.30;;;7.10;99.90;;;;;;4972841;28;20649;-79
2022/12/23 08:40:49;;;;;;;174.98;22.95;;;7.20;99.90;;;;;;4975082;28;20034;-79
2022/12/23 08:43:15;;;;;;;210.75;23.58;;;7.20;99.90;;;;;;4992884;28;20451;-78
2022/12/23 08:45:40;;;;;;;150.02;20.33;;;7.20;99.90;;;;;;4960057;28;20058;-79
2022/12/23 08:48:06;;;;;;;193.32;22.40;;;7.20;99.90;;;;;;4976606;28;20037;-79
2022/12/23 08:50:39;;;;;;;194.63;22.27;;;7.20;99.90;;;;;;4969257;28;20042;-81
2022/12/23 08:53:05;;;;;;;172.25;21.23;;;7.20;99.90;;;;;;4965345;28;20048;-82
2022/12/23 08:55:37;;;;;;;101.30;16.88;;;7.20;99.90;;;;;;4983514;28;20463;-82
2022/12/23 08:58:02;;;;;;;107.93;16.90;;;7.20;99.90;;;;;;4973897;28;20058;-80
2022/12/23 09:00:28;;;;;;;94.88;17.13;;;7.30;99.90;;;;;;4980525;28;20105;-81
2022/12/23 09:02:53;;;;;;;104.10;17.05;;;7.30;99.90;;;;;;4976098;28;20060;-80
2022/12/23 09:05:19;;;;;;;126.47;16.88;;;7.30;99.90;;;;;;4966720;28;20066;-82
2022/12/23 09:07:44;;;;;;;127.47;16.95;;;7.30;99.90;;;;;;4972502;28;20496;-81
2022/12/23 09:10:10;;;;;;;86.75;16.15;;;7.30;99.90;;;;;;4966924;28;20038;-80
2022/12/23 09:12:36;;;;;;;90.25;15.57;;;7.30;99.90;;;;;;4980138;28;20048;-77
2022/12/23 09:15:01;;;;;;;114.00;17.98;;;7.30;99.90;;;;;;4961758;28;20030;-78
2022/12/23 09:17:27;;;;;;;96.60;17.63;;;7.30;99.90;;;;;;4981373;28;20493;-77
2022/12/23 09:19:52;;;;;;;116.35;18.15;;;7.40;99.90;;;;;;4977802;28;20045;-78
2022/12/23 09:22:21;;;;;;;58.35;14.52;;;7.40;99.90;;;;;;4978150;28;20048;-78
2022/12/23 09:24:46;;;;;;;68.55;15.20;;;7.40;99.90;;;;;;4975743;28;20128;-77
2022/12/23 09:27:12;;;;;;;67.30;15.75;;;7.50;99.90;;;;;;4970909;28;20522;-78
2022/12/23 09:29:38;;;;;;;49.63;14.10;;;7.40;99.90;;;;;;4977603;28;20038;-78
2022/12/23 09:32:03;;;;;;;75.35;15.25;;;7.40;99.90;;;;;;4982915;28;20102;-78
2022/12/23 09:34:29;;;;;;;69.20;21.75;;;7.40;99.90;;;;;;4976705;28;20042;-78
2022/12/23 09:36:54;;;;;;;42.38;18.75;;;7.50;99.90;;;;;;4976308;28;20119;-78
2022/12/23 09:39:20;;;;;;;90.05;18.75;;;7.40;99.90;;;;;;4976238;28;20038;-78
2022/12/23 09:41:53;;;;;;;90.07;17.75;;;7.40;99.90;;;;;;4992300;28;20133;-78
2022/12/23 09:44:46;;;;;;;77.50;15.00;;;7.40;99.90;;;;;;4977126;28;20034;-78
2022/12/23 09:47:20;;;;;;;59.67;13.77;;;7.50;99.90;;;;;;4967156;28;20038;-77
2022/12/23 09:49:53;;;;;;;79.00;14.95;;;7.50;99.90;;;;;;4983714;28;20524;-78
2022/12/23 09:52:24;;;;;;;64.57;13.38;;;7.50;99.90;;;;;;4982282;28;20046;-77
2022/12/23 09:54:53;;;;;;;45.38;13.05;;;7.50;99.90;;;;;;4982730;28;20053;-78
2022/12/23 09:57:27;;;;;;;57.53;14.40;;;7.50;99.90;;;;;;4960414;28;20042;-78
2022/12/23 10:00:15;;;;;;;58.75;15.02;;;7.50;99.90;;;;;;4967147;28;20034;-78
2022/12/23 10:02:50;;;;;;;60.53;15.23;;;7.50;99.90;;;;;;4984936;28;20085;-78
2022/12/23 10:05:27;;;;;;;53.17;15.65;;;7.50;99.90;;;;;;4982328;28;20106;-78
2022/12/23 10:08:25;;;;;;;41.33;14.80;;;7.50;99.90;;;;;;4981031;28;20046;-77
2022/12/23 10:10:58;;;;;;;51.03;15.05;;;7.60;99.90;;;;;;4967269;28;20046;-78
2022/12/23 10:13:28;;;;;;;38.53;14.98;;;7.60;99.90;;;;;;4979460;28;20042;-77
2022/12/23 10:15:57;;;;;;;50.72;13.50;;;7.60;99.90;;;;;;4982694;28;20089;-78
2022/12/23 10:18:34;;;;;;;62.58;14.00;;;7.60;99.90;;;;;;4971765;28;20200;-80
2022/12/23 10:21:04;;;;;;;40.55;12.45;;;7.60;99.90;;;;;;4974814;28;20077;-78
2022/12/23 10:23:36;;;;;;;49.47;13.40;;;7.70;99.90;;;;;;4966701;28;20165;-78
2022/12/23 10:26:11;;;;;;;45.97;13.80;;;7.70;99.90;;;;;;4984684;28;20040;-78
2022/12/23 10:28:36;;;;;;;42.05;14.15;;;7.80;99.90;;;;;;4979316;28;20080;-78
2022/12/23 10:31:04;;;;;;;36.50;14.50;;;7.80;99.90;;;;;;4977464;28;20120;-78
2022/12/23 10:33:30;;;;;;;34.50;13.50;;;7.80;99.90;;;;;;4978572;28;20039;-78
2022/12/23 10:36:03;;;;;;;28.25;11.88;;;7.90;99.90;;;;;;4978283;28;20048;-76
2022/12/23 10:38:59;;;;;;;33.70;11.95;;;7.90;99.90;;;;;;4963041;28;20038;-76
2022/12/23 10:41:48;;;;;;;32.85;11.88;;;7.90;99.90;;;;;;4967739;28;20034;-76
2022/12/23 10:44:46;;;;;;;28.50;12.18;;;7.90;99.90;;;;;;4976203;28;20054;-81
2022/12/23 10:47:24;;;;;;;29.52;12.40;;;7.90;99.90;;;;;;4971774;28;20136;-80
2022/12/23 10:50:01;;;;;;;24.33;10.50;;;7.90;99.90;;;;;;4973613;28;20048;-80
2022/12/23 10:52:32;;;;;;;28.75;11.10;;;7.90;99.90;;;;;;4980943;28;20566;-80
2022/12/23 10:54:58;;;;;;;36.38;12.32;;;7.90;99.90;;;;;;4956133;28;20492;-79
2022/12/23 10:57:24;;;;;;;32.35;13.15;;;7.90;99.90;;;;;;4996865;28;20130;-79
2022/12/23 10:59:51;;;;;;;40.72;15.05;;;7.90;99.90;;;;;;4980314;28;20030;-79
2022/12/23 11:02:43;;;;;;;49.63;15.38;;;7.90;99.90;;;;;;4963933;28;20507;-80
2022/12/23 11:05:16;;;;;;;48.80;13.85;;;8.00;99.90;;;;;;4971983;28;20040;-79
2022/12/23 11:07:45;;;;;;;36.35;13.40;;;7.90;99.90;;;;;;4964878;28;20038;-79
2022/12/23 11:10:25;;;;;;;54.50;14.07;;;8.00;99.90;;;;;;4980533;28;20038;-80
2022/12/23 11:12:52;;;;;;;58.88;16.25;;;8.00;99.90;;;;;;4979017;28;20077;-79
2022/12/23 11:15:34;;;;;;;46.63;14.98;;;7.90;99.90;;;;;;4963222;28;20042;-79
2022/12/23 11:18:05;;;;;;;62.72;15.80;;;7.90;99.90;;;;;;4980394;28;20054;-82
2022/12/23 11:20:33;;;;;;;58.30;16.58;;;8.00;99.90;;;;;;4982556;28;20038;-82
2022/12/23 11:23:01;;;;;;;48.05;17.00;;;7.90;99.90;;;;;;4974514;28;20064;-80
2022/12/23 11:25:30;;;;;;;60.20;17.33;;;7.90;99.90;;;;;;4965634;28;20053;-79
2022/12/23 11:28:06;;;;;;;70.70;18.00;;;7.90;99.90;;;;;;4971946;28;20050;-79
2022/12/23 11:30:37;;;;;;;55.35;17.45;;;7.90;99.90;;;;;;4981739;28;20061;-80
2022/12/23 11:33:03;;;;;;;59.28;16.40;;;7.90;99.90;;;;;;4965848;28;20048;-80
2022/12/23 11:35:31;;;;;;;52.90;17.10;;;7.90;99.90;;;;;;4968601;28;20120;-80
2022/12/23 11:37:59;;;;;;;45.00;16.65;;;7.90;99.90;;;;;;4984067;28;20054;-83
2022/12/23 11:40:29;;;;;;;57.92;16.73;;;7.90;99.90;;;;;;4982769;28;20039;-82
2022/12/23 11:43:03;;;;;;;65.00;18.58;;;7.90;99.90;;;;;;4980932;28;20492;-80
2022/12/23 11:45:33;;;;;;;66.43;21.73;;;7.90;99.90;;;;;;4981824;28;20045;-80
2022/12/23 11:47:59;;;;;;;77.00;22.25;;;7.90;99.90;;;;;;4967113;28;20050;-80
2022/12/23 11:50:33;;;;;;;64.88;20.17;;;7.90;99.90;;;;;;4983361;28;20492;-80
2022/12/23 11:53:18;;;;;;;69.95;23.48;;;7.90;99.90;;;;;;4982757;28;20038;-79
2022/12/23 11:55:57;;;;;;;67.80;20.02;;;8.00;99.90;;;;;;4967118;28;20129;-80
2022/12/23 11:58:23;;;;;;;67.60;28.33;;;7.90;99.90;;;;;;4966791;28;20050;-80
2022/12/23 12:00:53;;;;;;;67.68;20.90;;;7.90;99.90;;;;;;4979567;28;20049;-80
2022/12/23 12:03:22;;;;;;;85.43;21.02;;;7.90;99.90;;;;;;4984984;28;20118;-80
2022/12/23 12:05:56;;;;;;;83.82;18.92;;;7.90;99.90;;;;;;4963885;28;20045;-80
2022/12/23 12:08:31;;;;;;;83.03;19.30;;;7.90;99.90;;;;;;4963898;28;20058;-80
2022/12/23 12:11:24;;;;;;;79.25;20.67;;;7.90;99.90;;;;;;4980805;28;20042;-80
2022/12/23 12:13:58;;;;;;;88.80;20.27;;;7.90;99.90;;;;;;4966772;28;20042;-81
2022/12/23 12:16:30;;;;;;;106.53;23.65;;;7.90;99.90;;;;;;4980465;28;20042;-81
2022/12/23 12:19:17;;;;;;;109.32;22.27;;;7.90;99.90;;;;;;4976345;28;20036;-80
2022/12/23 12:21:44;;;;;;;84.00;19.02;;;7.90;99.90;;;;;;4976386;28;20057;-80
2022/12/23 12:24:18;;;;;;;75.80;18.98;;;7.90;99.90;;;;;;4973129;28;20037;-81
2022/12/23 12:26:49;;;;;;;82.78;19.15;;;7.90;99.90;;;;;;4955187;28;20034;-80
2022/12/23 12:29:40;;;;;;;76.28;18.67;;;7.90;99.90;;;;;;4964086;28;20382;-80
2022/12/23 12:32:17;;;;;;;71.38;18.13;;;7.90;99.90;;;;;;4967983;28;20046;-80
2022/12/23 12:35:29;;;;;;;85.90;20.30;;;8.00;99.90;;;;;;4972459;28;20261;-80
2022/12/23 12:38:19;;;;;;;90.38;19.80;;;7.90;99.90;;;;;;4980145;28;20046;-79
2022/12/23 12:40:53;;;;;;;78.70;19.52;;;7.90;99.90;;;;;;4970465;28;20049;-80
2022/12/23 12:43:30;;;;;;;99.75;20.02;;;8.00;99.90;;;;;;4977550;28;20041;-80
2022/12/23 12:46:04;;;;;;;95.32;21.35;;;7.90;99.90;;;;;;4978158;28;20046;-80
2022/12/23 12:48:44;;;;;;;83.22;21.88;;;7.90;99.90;;;;;;4965396;28;20046;-80
2022/12/23 12:51:45;;;;;;;100.63;24.30;;;8.00;99.90;;;;;;4977800;28;20034;-80
2022/12/23 12:54:31;;;;;;;145.73;28.25;;;7.90;99.90;;;;;;4978122;28;20125;-80
2022/12/23 12:56:58;;;;;;;81.85;21.77;;;7.90;99.90;;;;;;4980471;28;20555;-81
2022/12/23 12:59:31;;;;;;;97.28;22.83;;;8.00;99.90;;;;;;4982376;28;20516;-80
2022/12/23 13:01:59;;;;;;;;;;;8.00;99.90;;;;;;4968442;28;20038;-80
2022/12/23 13:04:54;;;;;;;100.00;21.33;;;8.00;99.90;;;;;;4972841;28;19986;-79
2022/12/23 13:07:48;;;;;;;108.05;22.17;;;7.90;99.90;;;;;;4973456;28;20038;-81
2022/12/23 13:10:13;;;;;;;;;;;7.90;99.90;;;;;;4997372;28;20038;-81
2022/12/23 13:13:08;;;;;;;94.18;20.63;;;7.90;99.90;;;;;;4965652;28;20295;-81
2022/12/23 13:15:45;;;;;;;76.60;18.98;;;8.00;99.90;;;;;;4948682;28;20069;-81
2022/12/23 13:18:24;;;;;;;109.07;21.15;;;8.00;99.90;;;;;;4979495;28;20074;-81
2022/12/23 13:21:08;;;;;;;90.03;20.95;;;8.00;99.90;;;;;;4961605;28;20400;-81
2022/12/23 13:23:43;;;;;;;85.90;21.60;;;8.00;99.90;;;;;;4958359;28;20400;-81
2022/12/23 13:26:34;;;;;;;75.15;19.75;;;8.00;99.90;;;;;;4975632;28;20563;-81